Time;durP1;ratioP1;P1;durP2;ratioP2;P2;SDS_P1;SDS_P2;PMS_P1;PMS_P2;Temp;Humidity;BMP_temperature;BMP_pressure;BME280_temperature;BME280_humidity;BME280_pressure;Samples;Min_cycle;Max_cycle;Signal;HPM_P1;HPM_P2
2023/12/10 00:01:21;;;;;;;4.18;2.60;;;5.70;99.90;;;6.30;100.00;98655.31;5015505;28;20058;-77
2023/12/10 00:03:47;;;;;;;3.55;2.08;;;5.80;99.90;;;6.36;100.00;98656.25;5020807;28;20041;-78
2023/12/10 00:06:13;;;;;;;4.18;2.00;;;5.80;99.90;;;6.36;100.00;98661.66;5031544;28;20100;-77
2023/12/10 00:08:38;;;;;;;4.82;1.95;;;5.80;99.90;;;6.44;100.00;98666.69;5017937;28;20056;-77
2023/12/10 00:11:04;;;;;;;6.32;2.28;;;5.90;99.90;;;6.53;100.00;98673.41;5024851;28;20053;-77
2023/12/10 00:13:30;;;;;;;5.72;2.17;;;5.90;99.90;;;6.55;100.00;98667.75;5028355;28;20476;-77
2023/12/10 00:15:55;;;;;;;6.40;2.67;;;6.00;99.90;;;6.57;100.00;98677.28;5022349;28;20045;-77
2023/12/10 00:18:21;;;;;;;8.52;2.60;;;6.10;99.90;;;6.66;100.00;98677.75;5010257;28;20038;-77
2023/12/10 00:20:47;;;;;;;5.47;2.67;;;6.20;99.90;;;6.88;100.00;98687.91;5030921;28;20445;-77
2023/12/10 00:23:13;;;;;;;8.15;2.78;;;6.20;99.90;;;6.91;100.00;98684.75;5024769;28;20037;-77
2023/12/10 00:25:39;;;;;;;8.20;3.28;;;6.30;99.90;;;6.98;100.00;98692.72;5022266;28;20026;-77
2023/12/10 00:28:05;;;;;;;6.70;3.17;;;6.30;99.90;;;7.06;100.00;98700.50;5027528;28;20064;-77
2023/12/10 00:30:31;;;;;;;7.13;3.05;;;6.40;99.90;;;7.05;100.00;98705.09;5016884;28;20030;-77
2023/12/10 00:32:56;;;;;;;11.68;3.33;;;6.50;99.90;;;7.20;100.00;98706.44;5030741;28;20037;-77
2023/12/10 00:35:22;;;;;;;7.60;2.97;;;6.50;99.90;;;7.22;100.00;98719.75;5016007;28;20049;-77
2023/12/10 00:37:48;;;;;;;8.48;3.63;;;6.50;99.90;;;7.26;100.00;98720.91;5026035;28;20419;-78
2023/12/10 00:40:15;;;;;;;12.50;3.47;;;6.60;99.90;;;7.30;100.00;98727.53;5032404;28;20357;-77
2023/12/10 00:42:43;;;;;;;9.55;3.42;;;6.60;99.90;;;7.25;100.00;98736.38;5031541;28;20037;-78
2023/12/10 00:45:09;;;;;;;8.20;3.30;;;6.60;99.90;;;7.16;100.00;98735.94;5020363;28;20516;-77
2023/12/10 00:47:35;;;;;;;11.70;3.58;;;6.60;99.90;;;7.22;100.00;98734.16;5022795;28;20442;-77
2023/12/10 00:50:00;;;;;;;11.88;3.65;;;6.60;99.90;;;7.13;100.00;98735.59;5033587;28;20030;-78
2023/12/10 00:52:26;;;;;;;12.50;3.92;;;6.60;99.90;;;7.18;100.00;98743.84;5019731;28;20029;-77
2023/12/10 00:54:52;;;;;;;13.35;4.20;;;6.60;99.90;;;7.31;100.00;98732.69;5032131;28;20033;-78
2023/12/10 00:57:17;;;;;;;19.25;5.03;;;6.70;99.90;;;7.33;100.00;98746.84;5022834;28;20553;-77
2023/12/10 00:59:43;;;;;;;21.20;5.28;;;6.70;99.90;;;7.55;100.00;98735.31;5014215;28;20131;-78
2023/12/10 01:02:09;;;;;;;21.60;4.90;;;6.90;99.90;;;7.68;100.00;98749.63;5030041;28;20507;-77
2023/12/10 01:04:35;;;;;;;19.00;5.03;;;6.90;99.90;;;7.67;100.00;98758.84;5022186;28;20022;-78
2023/12/10 01:07:01;;;;;;;23.63;5.40;;;7.00;99.90;;;7.82;100.00;98766.41;5022041;28;20120;-78
2023/12/10 01:09:26;;;;;;;24.00;5.55;;;7.10;99.90;;;7.86;100.00;98765.69;5028107;28;20047;-78
2023/12/10 01:11:52;;;;;;;26.80;5.72;;;7.20;99.90;;;8.01;100.00;98777.91;5031654;28;20101;-78
2023/12/10 01:14:18;;;;;;;34.00;6.05;;;7.30;99.90;;;8.09;100.00;98782.91;5019859;28;20038;-79
2023/12/10 01:16:43;;;;;;;20.85;5.30;;;7.50;99.90;;;8.25;100.00;98788.63;5031509;28;20033;-78
2023/12/10 01:19:09;;;;;;;19.08;4.82;;;7.50;99.90;;;8.27;100.00;98791.91;5015856;28;20120;-77
2023/12/10 01:21:35;;;;;;;26.15;4.63;;;7.70;99.90;;;8.30;100.00;98797.66;5018878;28;20037;-78
2023/12/10 01:24:00;;;;;;;28.55;4.90;;;7.70;99.90;;;8.91;100.00;98815.16;5036049;28;20405;-78
2023/12/10 01:26:26;;;;;;;21.20;4.03;;;7.80;99.90;;;9.40;100.00;98830.75;5031598;28;20048;-77
2023/12/10 01:28:52;;;;;;;21.23;4.55;;;7.90;99.90;;;9.74;100.00;98852.41;5013205;28;20034;-78
2023/12/10 01:31:17;;;;;;;23.65;4.93;;;8.00;99.90;;;9.54;100.00;98877.47;5019586;28;20042;-78
2023/12/10 01:33:43;;;;;;;21.08;4.30;;;8.00;99.90;;;9.40;100.00;98874.31;5031409;28;20034;-77
2023/12/10 01:36:23;;;;;;;19.40;3.95;;;8.00;99.90;;;9.82;100.00;98877.53;5018226;28;20388;-77
2023/12/10 01:38:50;;;;;;;20.02;3.70;;;8.10;99.90;;;9.81;100.00;98900.41;5014482;28;20094;-77
2023/12/10 01:41:16;;;;;;;23.88;4.00;;;8.20;99.90;;;9.60;100.00;98906.44;5031205;28;20080;-78
2023/12/10 01:43:43;;;;;;;21.25;4.05;;;8.30;99.90;;;9.59;100.00;98907.50;5027820;28;20042;-78
2023/12/10 01:46:08;;;;;;;20.80;3.78;;;8.30;99.90;;;9.66;100.00;98917.38;5024237;28;20359;-77
2023/12/10 01:48:35;;;;;;;24.80;4.18;;;8.40;99.90;;;9.69;100.00;98914.97;5023973;28;20038;-78
2023/12/10 01:51:01;;;;;;;16.45;4.05;;;8.40;99.90;;;9.82;100.00;98924.66;5026283;28;20048;-78
2023/12/10 01:53:27;;;;;;;22.95;3.70;;;8.40;99.90;;;9.70;100.00;98932.13;5019208;28;20033;-78
2023/12/10 01:55:52;;;;;;;19.30;3.83;;;8.40;99.90;;;9.62;100.00;98936.09;5033953;28;20048;-78
2023/12/10 01:58:18;;;;;;;23.70;4.35;;;8.40;99.90;;;9.49;100.00;98923.69;5029084;28;20137;-78
2023/12/10 02:00:44;;;;;;;20.70;3.60;;;8.40;99.90;;;9.57;100.00;98941.50;5024478;28;20041;-77
2023/12/10 02:03:11;;;;;;;25.23;3.60;;;8.40;99.90;;;9.48;100.00;98931.03;5029995;28;20104;-78
2023/12/10 02:05:36;;;;;;;21.35;3.90;;;8.50;99.90;;;9.59;100.00;98937.44;5024010;28;20069;-78
2023/12/10 02:08:02;;;;;;;20.60;3.20;;;8.50;99.90;;;9.48;100.00;98966.44;5026812;28;20034;-78
2023/12/10 02:10:28;;;;;;;19.50;3.33;;;8.50;99.90;;;9.49;100.00;98950.91;5026558;28;20038;-77
2023/12/10 02:12:55;;;;;;;17.40;3.42;;;8.50;99.90;;;9.51;100.00;98956.91;5012732;28;20057;-77
2023/12/10 02:15:21;;;;;;;20.60;4.18;;;8.50;99.90;;;9.55;100.00;98958.09;5023732;28;20040;-78
2023/12/10 02:17:49;;;;;;;21.63;3.63;;;8.50;99.90;;;9.48;100.00;98969.16;5012628;28;20029;-79
2023/12/10 02:20:16;;;;;;;19.00;3.28;;;8.40;99.90;;;9.40;100.00;98966.03;5030493;28;20041;-78
2023/12/10 02:22:58;;;;;;;18.83;3.13;;;8.40;99.90;;;9.48;100.00;98965.59;5030059;28;20461;-78
2023/12/10 02:25:33;;;;;;;25.73;3.47;;;8.40;99.90;;;9.57;100.00;98975.00;5026979;28;20036;-79
2023/12/10 02:28:00;;;;;;;22.20;4.03;;;8.40;99.90;;;9.60;100.00;98974.50;5029148;28;20056;-78
2023/12/10 02:30:26;;;;;;;19.00;3.60;;;8.40;99.90;;;9.53;100.00;98989.34;5027724;28;20568;-77
2023/12/10 02:32:52;;;;;;;22.33;3.92;;;8.40;99.90;;;9.53;100.00;98984.72;5024430;28;20412;-78
2023/12/10 02:35:18;;;;;;;23.33;4.25;;;8.40;99.90;;;9.33;100.00;98999.69;5018122;28;20026;-78
2023/12/10 02:37:43;;;;;;;26.30;3.95;;;8.40;99.90;;;9.45;100.00;98994.16;5024033;28;20037;-78
2023/12/10 02:40:10;;;;;;;22.45;4.38;;;8.40;99.90;;;9.43;100.00;99004.47;5034846;28;20048;-78
2023/12/10 02:42:36;;;;;;;28.07;5.10;;;8.40;99.90;;;9.49;100.00;98992.56;5025319;28;20473;-78
2023/12/10 02:45:03;;;;;;;21.77;3.50;;;8.30;99.90;;;9.69;100.00;98998.56;5030120;28;20033;-78
2023/12/10 02:47:28;;;;;;;24.80;3.40;;;8.30;99.90;;;9.71;100.00;99013.56;5016512;28;20087;-79
2023/12/10 02:49:54;;;;;;;23.38;3.78;;;8.30;99.90;;;9.63;100.00;99003.09;5028211;28;20394;-79
2023/12/10 02:52:23;;;;;;;27.65;3.75;;;8.20;99.90;;;9.49;100.00;99016.25;5025404;28;20026;-79
2023/12/10 02:54:49;;;;;;;26.55;4.57;;;8.20;99.90;;;9.68;100.00;99016.81;5019820;28;20113;-78
2023/12/10 02:57:14;;;;;;;28.27;3.80;;;8.30;99.90;;;9.70;100.00;99005.66;5023414;28;20040;-78
2023/12/10 02:59:40;;;;;;;28.58;4.30;;;8.30;99.90;;;9.71;100.00;99023.63;5028512;28;21037;-78
2023/12/10 03:02:06;;;;;;;28.23;4.82;;;8.30;99.90;;;9.59;100.00;99035.47;5024984;28;20037;-79
2023/12/10 03:04:32;;;;;;;23.00;4.32;;;8.40;99.90;;;9.73;100.00;99046.00;5029879;28;20029;-78
2023/12/10 03:06:57;;;;;;;21.52;3.22;;;8.40;99.90;;;9.85;100.00;99049.44;5011570;28;20394;-78
2023/12/10 03:09:23;;;;;;;25.73;3.97;;;8.50;99.90;;;9.75;100.00;99041.94;5017713;28;20034;-78
2023/12/10 03:11:49;;;;;;;27.13;3.63;;;8.50;99.90;;;9.84;100.00;99042.34;5018278;28;20066;-77
2023/12/10 03:14:14;;;;;;;27.15;4.15;;;8.50;99.90;;;9.79;100.00;99053.16;5027453;28;20030;-78
2023/12/10 03:16:40;;;;;;;27.05;3.80;;;8.50;99.90;;;9.71;100.00;99053.59;5030128;28;20092;-78
2023/12/10 03:19:06;;;;;;;26.00;4.20;;;8.50;99.90;;;9.91;100.00;99064.78;5021949;28;20481;-78
2023/12/10 03:21:31;;;;;;;24.17;4.65;;;8.50;99.90;;;9.44;100.00;99065.16;5029033;28;20062;-78
2023/12/10 03:23:57;;;;;;;23.67;4.38;;;8.50;99.90;;;9.44;100.00;99048.84;5017653;28;20510;-78
2023/12/10 03:26:23;;;;;;;26.73;4.00;;;8.50;99.90;;;9.50;100.00;99067.72;5020532;28;20045;-77
2023/12/10 03:28:48;;;;;;;17.50;3.53;;;8.40;99.90;;;9.48;100.00;99060.88;5023941;28;20037;-78
2023/12/10 03:31:14;;;;;;;19.10;3.85;;;8.40;99.90;;;9.40;100.00;99064.00;5024925;28;20045;-77
2023/12/10 03:33:40;;;;;;;24.70;4.18;;;8.40;99.90;;;9.23;100.00;99059.38;5019196;28;20034;-78
2023/12/10 03:36:06;;;;;;;21.63;4.10;;;8.50;99.90;;;9.38;100.00;99055.28;5029633;28;20029;-78
2023/12/10 03:38:31;;;;;;;24.63;3.78;;;8.50;99.90;;;9.54;100.00;99054.41;5029184;28;20038;-78
2023/12/10 03:40:57;;;;;;;26.73;4.85;;;8.50;99.90;;;9.58;100.00;99052.03;5018673;28;20056;-78
2023/12/10 03:43:23;;;;;;;23.63;4.32;;;8.50;99.90;;;9.47;100.00;99053.78;5011732;28;20076;-78
2023/12/10 03:45:49;;;;;;;27.27;3.78;;;8.50;99.90;;;9.57;100.00;99050.38;5010986;28;20046;-78
2023/12/10 03:48:14;;;;;;;24.80;4.25;;;8.40;99.90;;;9.49;100.00;99060.63;5022735;28;20501;-78
2023/12/10 03:50:41;;;;;;;26.00;4.70;;;8.40;99.90;;;9.39;100.00;99059.66;5026156;28;20030;-78
2023/12/10 03:53:07;;;;;;;24.02;4.03;;;8.40;99.90;;;9.27;100.00;99057.00;5025783;28;20033;-78
2023/12/10 03:55:33;;;;;;;23.92;4.40;;;8.40;99.90;;;9.21;100.00;99053.38;5029593;28;20086;-78
2023/12/10 03:57:59;;;;;;;22.83;4.35;;;8.40;99.90;;;9.19;100.00;99066.41;5029968;28;20534;-78
2023/12/10 04:00:24;;;;;;;26.63;4.32;;;8.50;99.90;;;9.21;100.00;99058.81;5024828;28;20049;-78
2023/12/10 04:02:50;;;;;;;18.10;3.60;;;8.50;99.90;;;9.09;100.00;99077.13;5023866;28;20038;-77
2023/12/10 04:05:16;;;;;;;22.52;4.13;;;8.50;99.90;;;9.04;100.00;99077.84;5022354;28;20038;-77
2023/12/10 04:07:41;;;;;;;28.63;4.18;;;8.40;99.90;;;8.94;100.00;99070.31;5016626;28;20041;-78
2023/12/10 04:10:08;;;;;;;23.10;4.50;;;8.30;99.90;;;9.11;100.00;99066.81;5022706;28;20485;-78
2023/12/10 04:12:34;;;;;;;27.05;5.07;;;8.30;99.90;;;8.92;100.00;99062.41;5032435;28;20049;-75
2023/12/10 04:14:59;;;;;;;29.73;4.65;;;8.30;99.90;;;8.90;100.00;99067.28;5019733;28;20145;-76
2023/12/10 04:17:25;;;;;;;20.90;3.88;;;8.30;99.90;;;8.96;100.00;99076.34;5029272;28;20513;-77
2023/12/10 04:19:51;;;;;;;25.17;4.40;;;8.30;99.90;;;8.82;100.00;99078.53;5026884;28;20094;-77
2023/12/10 04:22:16;;;;;;;27.42;4.93;;;8.30;99.90;;;8.77;100.00;99070.28;5020697;28;20468;-78
2023/12/10 04:24:42;;;;;;;23.75;4.78;;;8.30;99.90;;;8.83;100.00;99095.69;5012625;28;20044;-77
2023/12/10 04:27:08;;;;;;;19.52;4.30;;;8.20;99.90;;;8.75;100.00;99078.72;5032817;28;20060;-77
2023/12/10 04:29:33;;;;;;;23.33;5.00;;;8.20;99.90;;;8.84;100.00;99076.41;5024093;28;20454;-77
2023/12/10 04:31:59;;;;;;;23.08;4.43;;;8.10;99.90;;;8.64;100.00;99082.28;5031758;28;20049;-77
2023/12/10 04:34:25;;;;;;;22.45;4.18;;;8.10;99.90;;;8.57;100.00;99089.75;5032431;28;20037;-77
2023/12/10 04:36:50;;;;;;;28.80;4.65;;;8.00;99.90;;;8.47;100.00;99082.19;5017378;28;20041;-78
2023/12/10 04:39:16;;;;;;;26.15;4.95;;;7.90;99.90;;;8.45;100.00;99092.47;5037587;28;20036;-78
2023/12/10 04:41:42;;;;;;;22.58;4.82;;;7.90;99.90;;;8.46;100.00;99081.34;5023099;28;20042;-78
2023/12/10 04:44:08;;;;;;;26.60;5.47;;;7.80;99.90;;;8.47;100.00;99072.13;5022722;28;20030;-78
2023/12/10 04:46:33;;;;;;;32.58;5.25;;;7.70;99.90;;;8.29;100.00;99069.63;5026471;28;20072;-77
2023/12/10 04:48:59;;;;;;;21.83;4.20;;;7.70;99.90;;;8.29;100.00;99072.34;5026270;28;20112;-77
2023/12/10 04:51:25;;;;;;;24.55;4.95;;;7.70;99.90;;;8.29;100.00;99066.91;5025643;28;20367;-77
2023/12/10 04:53:51;;;;;;;25.88;5.38;;;7.60;99.90;;;8.38;100.00;99064.63;5014817;28;20034;-76
2023/12/10 04:56:17;;;;;;;25.05;5.30;;;7.60;99.90;;;8.28;100.00;99057.09;5027777;28;20076;-77
2023/12/10 04:58:43;;;;;;;27.92;5.97;;;7.60;99.90;;;8.39;100.00;99066.28;5036252;28;20049;-77
2023/12/10 05:01:08;;;;;;;25.65;5.57;;;7.60;99.90;;;8.35;100.00;99072.19;5028926;28;20091;-77
2023/12/10 05:03:34;;;;;;;28.45;6.93;;;7.60;99.90;;;8.25;100.00;99068.44;5031912;28;20537;-77
2023/12/10 05:06:01;;;;;;;25.67;5.97;;;7.60;99.90;;;8.19;100.00;99057.44;5024809;28;20052;-77
2023/12/10 05:08:27;;;;;;;25.70;5.30;;;7.50;99.90;;;8.24;100.00;99061.38;5027479;28;20041;-76
2023/12/10 05:10:52;;;;;;;23.33;4.47;;;7.50;99.90;;;8.34;100.00;99078.66;5032301;28;20037;-78
2023/12/10 05:13:18;;;;;;;26.75;5.85;;;7.50;99.90;;;8.29;100.00;99072.34;5017244;28;20157;-77
2023/12/10 05:15:44;;;;;;;29.15;5.10;;;7.50;99.90;;;8.31;100.00;99078.34;5029941;28;20578;-78
2023/12/10 05:18:10;;;;;;;22.63;5.45;;;7.50;99.90;;;8.36;100.00;99086.59;5025503;28;20033;-77
2023/12/10 05:20:35;;;;;;;20.23;4.40;;;7.50;99.90;;;8.34;100.00;99094.97;5024573;28;20396;-77
2023/12/10 05:23:01;;;;;;;20.70;5.03;;;7.50;99.90;;;8.32;100.00;99072.66;5022995;28;20083;-77
2023/12/10 05:25:27;;;;;;;24.08;5.00;;;7.50;99.90;;;8.31;100.00;99089.22;5028543;28;20496;-78
2023/12/10 05:27:54;;;;;;;16.75;4.38;;;7.50;99.90;;;8.30;100.00;99063.13;5021144;28;20033;-78
2023/12/10 05:30:20;;;;;;;16.87;4.63;;;7.60;99.90;;;8.40;100.00;99068.75;5025804;28;20405;-78
2023/12/10 05:32:46;;;;;;;20.52;4.63;;;7.60;99.90;;;8.71;100.00;99087.59;5014138;28;20029;-78
2023/12/10 05:35:11;;;;;;;27.00;5.22;;;7.60;99.90;;;8.67;100.00;99083.69;5023562;28;20404;-77
2023/12/10 05:37:37;;;;;;;22.13;4.60;;;7.60;99.90;;;8.75;100.00;99086.03;5013529;28;20040;-76
2023/12/10 05:40:03;;;;;;;16.27;4.10;;;7.60;99.90;;;8.69;100.00;99076.94;5028405;28;20037;-77
2023/12/10 05:42:29;;;;;;;21.48;5.25;;;7.70;99.90;;;8.52;100.00;99086.94;5025145;28;20025;-77
2023/12/10 05:44:55;;;;;;;22.17;4.57;;;7.70;99.90;;;8.61;100.00;99097.19;5024994;28;20381;-77
2023/12/10 05:47:22;;;;;;;22.52;3.80;;;7.70;99.90;;;8.48;100.00;99087.38;5026125;28;20473;-77
2023/12/10 05:49:47;;;;;;;25.63;4.63;;;7.80;99.90;;;8.61;100.00;99086.28;5023245;28;20057;-77
2023/12/10 05:52:13;;;;;;;18.15;3.60;;;7.80;99.90;;;8.61;100.00;99085.50;5019295;28;20069;-78
2023/12/10 05:54:39;;;;;;;13.88;3.70;;;7.80;99.90;;;8.74;100.00;99100.69;5015843;28;20092;-77
2023/12/10 05:57:05;;;;;;;15.13;3.42;;;7.90;99.90;;;8.65;100.00;99102.16;5012102;28;20041;-78
2023/12/10 05:59:30;;;;;;;15.95;3.10;;;8.00;99.90;;;8.84;100.00;99106.31;5028099;28;20095;-76
2023/12/10 06:01:56;;;;;;;13.73;2.78;;;8.00;99.90;;;8.80;100.00;99098.91;5025809;28;20084;-78
2023/12/10 06:04:22;;;;;;;16.67;3.50;;;8.00;99.90;;;8.80;100.00;99088.03;5030739;28;20046;-78
2023/12/10 06:06:48;;;;;;;16.55;3.25;;;8.00;99.90;;;8.83;100.00;99098.41;5032839;28;20037;-77
2023/12/10 06:09:14;;;;;;;12.10;2.78;;;8.00;99.90;;;8.82;100.00;99107.63;5031127;28;20046;-77
2023/12/10 06:11:41;;;;;;;11.93;2.90;;;8.00;99.90;;;8.58;100.00;99118.59;5018530;28;20375;-77
2023/12/10 06:14:06;;;;;;;11.75;3.22;;;8.00;99.90;;;8.68;100.00;99116.06;5016064;28;20048;-77
2023/12/10 06:16:32;;;;;;;15.52;2.80;;;7.90;99.90;;;8.80;100.00;99115.22;5035294;28;20112;-79
2023/12/10 06:18:58;;;;;;;12.73;2.80;;;7.90;99.90;;;8.46;100.00;99116.69;5025881;28;20140;-80
2023/12/10 06:21:24;;;;;;;12.68;2.20;;;7.90;99.90;;;8.43;100.00;99119.09;5028409;28;20144;-79
2023/12/10 06:23:50;;;;;;;11.32;2.72;;;7.80;99.90;;;8.27;100.00;99123.38;5028791;28;20037;-78
2023/12/10 06:26:15;;;;;;;14.70;2.72;;;7.70;99.90;;;8.21;100.00;99123.22;5032378;28;20049;-79
2023/12/10 06:28:41;;;;;;;11.75;2.15;;;7.60;99.90;;;8.18;100.00;99131.88;5034078;28;20426;-76
2023/12/10 06:31:07;;;;;;;10.23;2.50;;;7.50;99.90;;;8.30;100.00;99122.88;5019821;28;20030;-77
2023/12/10 06:33:32;;;;;;;11.90;2.83;;;7.40;99.90;;;8.30;100.00;99131.03;5020494;28;20065;-77
2023/12/10 06:35:58;;;;;;;9.10;2.38;;;7.40;99.90;;;8.07;100.00;99128.09;5035639;28;20077;-78
2023/12/10 06:38:24;;;;;;;11.50;2.47;;;7.30;99.90;;;7.97;100.00;99137.94;5028993;28;20052;-77
2023/12/10 06:40:51;;;;;;;9.55;2.50;;;7.30;99.90;;;7.92;100.00;99139.44;5014771;28;20045;-77
2023/12/10 06:43:17;;;;;;;13.43;2.13;;;7.20;99.90;;;7.85;100.00;99141.44;5022694;28;20671;-77
2023/12/10 06:45:42;;;;;;;10.27;2.75;;;7.20;99.90;;;7.86;100.00;99131.44;5026373;28;20121;-77
2023/12/10 06:48:08;;;;;;;8.07;2.50;;;7.10;99.90;;;7.86;100.00;99132.25;5012703;28;20038;-77
2023/12/10 06:50:34;;;;;;;8.40;2.30;;;7.10;99.90;;;7.85;100.00;99146.06;5024870;28;20037;-77
2023/12/10 06:53:00;;;;;;;8.05;2.40;;;7.10;99.90;;;7.76;100.00;99145.59;5029750;28;20065;-77
2023/12/10 06:55:25;;;;;;;10.50;2.15;;;7.10;99.90;;;7.74;100.00;99132.25;5017125;28;20037;-77
2023/12/10 06:57:51;;;;;;;9.02;2.40;;;7.10;99.90;;;7.77;100.00;99141.81;5026335;28;20393;-75
2023/12/10 07:00:18;;;;;;;7.47;2.45;;;7.00;99.90;;;7.73;100.00;99135.22;5044761;28;20041;-78
2023/12/10 07:02:44;;;;;;;11.27;2.92;;;7.00;99.90;;;7.88;100.00;99145.59;5022358;28;20188;-77
2023/12/10 07:05:10;;;;;;;8.00;2.20;;;7.00;99.90;;;7.81;100.00;99142.16;5023305;28;20426;-78
2023/12/10 07:07:35;;;;;;;11.23;2.42;;;6.90;99.90;;;7.71;100.00;99150.91;5030486;28;20478;-78
2023/12/10 07:10:01;;;;;;;12.45;2.58;;;6.90;99.90;;;7.72;100.00;99144.41;5023367;28;20041;-77
2023/12/10 07:12:27;;;;;;;8.05;2.22;;;6.90;99.90;;;7.83;100.00;99156.34;5027864;28;20033;-77
2023/12/10 07:14:53;;;;;;;11.30;2.58;;;6.90;99.90;;;7.66;100.00;99156.19;5018011;28;20048;-78
2023/12/10 07:17:18;;;;;;;8.63;2.13;;;6.90;99.90;;;7.74;100.00;99164.00;5033081;28;20044;-77
2023/12/10 07:19:44;;;;;;;12.05;2.40;;;6.90;99.90;;;7.63;100.00;99152.88;5012977;28;20441;-78
2023/12/10 07:22:10;;;;;;;8.35;2.72;;;6.90;99.90;;;7.65;100.00;99160.81;5022310;28;20346;-78
2023/12/10 07:24:37;;;;;;;11.00;2.28;;;6.90;99.90;;;7.67;100.00;99171.41;5011116;28;20092;-78
2023/12/10 07:27:03;;;;;;;7.32;2.15;;;7.00;99.90;;;7.62;100.00;99155.84;5023998;28;20046;-79
2023/12/10 07:29:29;;;;;;;12.18;2.53;;;7.00;99.90;;;7.70;100.00;99190.78;5029008;28;20048;-78
2023/12/10 07:31:54;;;;;;;9.48;1.90;;;7.00;99.90;;;7.60;100.00;99166.13;5030100;28;20048;-79
2023/12/10 07:34:20;;;;;;;7.88;2.05;;;7.10;99.90;;;7.74;100.00;99170.25;5022779;28;20041;-78
2023/12/10 07:36:46;;;;;;;9.65;2.17;;;7.00;99.90;;;7.72;100.00;99174.28;5024745;28;20041;-78
2023/12/10 07:39:13;;;;;;;14.35;2.45;;;7.00;99.90;;;7.68;100.00;99154.91;5028027;28;20034;-79
2023/12/10 07:41:39;;;;;;;8.68;2.17;;;7.00;99.90;;;7.72;100.00;99171.56;5028123;28;20046;-79
2023/12/10 07:44:05;;;;;;;9.80;2.78;;;7.10;99.90;;;7.72;100.00;99180.50;5030681;28;20095;-80
2023/12/10 07:46:30;;;;;;;8.27;1.60;;;7.10;99.90;;;7.67;100.00;99168.69;5017466;28;20038;-78
2023/12/10 07:48:56;;;;;;;6.95;1.85;;;7.10;99.90;;;7.68;100.00;99189.34;5031716;28;20048;-78
2023/12/10 07:51:23;;;;;;;9.25;2.03;;;7.10;99.90;;;7.85;100.00;99176.75;5033309;28;20041;-78
2023/12/10 07:53:48;;;;;;;10.63;2.10;;;7.10;99.90;;;7.95;100.00;99178.03;5032917;28;20091;-77
2023/12/10 07:56:14;;;;;;;7.63;2.17;;;7.20;99.90;;;7.82;100.00;99190.81;5033509;28;20037;-78
2023/12/10 07:58:40;;;;;;;7.07;1.80;;;7.30;99.90;;;8.05;100.00;99181.03;5033331;28;20037;-78
2023/12/10 08:01:09;;;;;;;4.32;1.42;;;7.30;99.90;;;8.06;100.00;99204.41;5028626;28;20068;-79
2023/12/10 08:03:35;;;;;;;9.27;1.77;;;7.30;99.90;;;8.04;100.00;99201.91;5025155;28;20038;-79
2023/12/10 08:06:01;;;;;;;7.30;1.75;;;7.30;99.90;;;8.21;100.00;99188.44;5021651;28;20079;-78
2023/12/10 08:08:27;;;;;;;8.52;1.80;;;7.30;99.90;;;8.13;100.00;99188.81;5026721;28;20115;-79
2023/12/10 08:10:53;;;;;;;7.82;1.90;;;7.30;99.90;;;8.12;100.00;99168.13;5022216;28;20378;-78
2023/12/10 08:13:18;;;;;;;7.47;1.70;;;7.30;99.90;;;8.19;100.00;99206.88;5033078;28;20339;-79
2023/12/10 08:15:44;;;;;;;8.85;1.77;;;7.40;99.90;;;8.15;100.00;99208.41;5028825;28;20025;-78
2023/12/10 08:18:10;;;;;;;6.65;2.10;;;7.30;99.90;;;8.15;100.00;99221.19;5025319;28;20037;-79
2023/12/10 08:20:36;;;;;;;9.40;2.10;;;7.40;99.90;;;8.12;100.00;99227.09;5021482;28;20030;-79
2023/12/10 08:23:01;;;;;;;5.78;1.60;;;7.50;99.90;;;8.17;100.00;99213.63;5026669;28;20053;-79
2023/12/10 08:25:27;;;;;;;7.05;2.13;;;7.50;99.90;;;8.39;100.00;99223.91;5020867;28;20038;-80
2023/12/10 08:27:53;;;;;;;10.48;2.40;;;7.60;99.90;;;8.12;100.00;99217.03;5032650;28;20120;-78
2023/12/10 08:30:18;;;;;;;7.32;1.80;;;7.50;99.90;;;8.30;100.00;99205.22;5032408;28;20068;-78
2023/12/10 08:32:44;;;;;;;5.28;1.52;;;7.60;99.90;;;8.20;100.00;99216.66;5025624;28;20033;-79
2023/12/10 08:35:10;;;;;;;5.32;1.27;;;7.60;99.90;;;8.26;100.00;99219.53;5022434;28;20046;-79
2023/12/10 08:37:36;;;;;;;7.80;1.60;;;7.60;99.90;;;8.18;100.00;99207.94;5014891;28;20048;-78
2023/12/10 08:40:04;;;;;;;6.72;1.58;;;7.50;99.90;;;8.23;100.00;99215.38;5028726;28;20034;-79
2023/12/10 08:42:30;;;;;;;9.27;1.95;;;7.50;99.90;;;8.15;100.00;99235.56;5028769;28;20120;-78
2023/12/10 08:45:00;;;;;;;10.23;1.90;;;7.50;99.90;;;8.00;100.00;99227.88;5039761;28;20054;-78
2023/12/10 08:47:25;;;;;;;7.20;1.70;;;7.30;99.90;;;7.85;100.00;99213.97;5038039;28;20445;-78
2023/12/10 08:49:54;;;;;;;11.27;2.25;;;7.20;99.90;;;7.81;100.00;99204.59;5032476;28;20135;-77
2023/12/10 08:52:21;;;;;;;10.07;2.20;;;7.10;99.90;;;7.80;100.00;99209.22;5016609;28;20049;-77
2023/12/10 08:54:46;;;;;;;10.60;2.58;;;7.10;99.90;;;7.75;100.00;99214.53;5023874;28;20048;-78
2023/12/10 08:57:13;;;;;;;14.23;2.55;;;7.10;99.90;;;7.92;100.00;99210.03;5020884;28;20042;-77
2023/12/10 08:59:39;;;;;;;10.07;2.28;;;7.10;99.90;;;7.84;100.00;99201.44;5047586;28;20052;-78
2023/12/10 09:02:05;;;;;;;12.13;2.42;;;7.10;99.90;;;7.84;100.00;99213.13;5025546;28;20030;-78
2023/12/10 09:04:31;;;;;;;9.98;2.30;;;7.10;99.90;;;7.75;100.00;99217.25;5024892;28;20093;-78
2023/12/10 09:06:56;;;;;;;11.45;2.70;;;7.10;99.90;;;7.70;100.00;99212.50;5016561;28;20042;-78
2023/12/10 09:09:22;;;;;;;8.88;2.17;;;7.10;99.90;;;7.66;100.00;99210.47;5022988;28;20038;-78
2023/12/10 09:11:48;;;;;;;8.13;2.55;;;7.10;99.90;;;7.76;100.00;99240.63;5020423;28;20426;-79
2023/12/10 09:14:13;;;;;;;9.13;2.15;;;7.10;99.90;;;7.77;100.00;99217.84;5018653;28;20121;-79
2023/12/10 09:16:39;;;;;;;13.95;3.22;;;7.20;99.90;;;7.76;100.00;99211.56;5024749;28;20411;-79
2023/12/10 09:19:05;;;;;;;12.88;2.55;;;7.20;99.90;;;7.88;100.00;99229.78;5028558;28;20089;-78
2023/12/10 09:21:30;;;;;;;7.90;2.55;;;7.20;99.90;;;7.81;100.00;99240.72;5014371;28;20038;-79
2023/12/10 09:23:56;;;;;;;8.88;2.40;;;7.30;99.90;;;7.97;100.00;99222.94;5024410;28;20037;-79
2023/12/10 09:26:22;;;;;;;9.75;2.25;;;7.30;99.90;;;8.07;100.00;99233.22;5038297;28;20201;-79
2023/12/10 09:28:48;;;;;;;12.38;3.20;;;7.40;99.90;;;8.18;100.00;99218.81;5028031;28;20484;-79
2023/12/10 09:31:13;;;;;;;7.88;2.33;;;7.40;99.90;;;8.17;100.00;99247.03;5025905;28;20041;-78
2023/12/10 09:33:39;;;;;;;11.40;2.38;;;7.40;99.90;;;8.10;100.00;99238.19;5027581;28;20518;-78
2023/12/10 09:36:05;;;;;;;9.82;2.50;;;7.50;99.90;;;8.26;100.00;99242.06;5006589;28;20037;-78
2023/12/10 09:38:31;;;;;;;7.65;2.13;;;7.50;99.90;;;8.35;100.00;99242.56;5039484;28;20041;-78
2023/12/10 09:40:56;;;;;;;11.02;2.50;;;7.60;99.90;;;8.35;100.00;99220.81;5040001;28;20042;-80
2023/12/10 09:43:23;;;;;;;6.38;1.70;;;7.70;99.90;;;8.39;100.00;99229.34;5028620;28;20111;-77
2023/12/10 09:45:49;;;;;;;15.10;2.22;;;7.80;99.90;;;8.44;100.00;99251.19;5030643;28;20084;-78
2023/12/10 09:48:16;;;;;;;7.57;2.08;;;7.80;99.90;;;8.50;100.00;99263.84;5029790;28;20033;-79
2023/12/10 09:50:42;;;;;;;9.75;2.15;;;7.90;99.90;;;8.56;100.00;99260.19;5017348;28;20470;-79
2023/12/10 09:53:08;;;;;;;8.38;1.92;;;7.90;99.90;;;8.59;100.00;99267.03;5018966;28;20049;-79
2023/12/10 09:55:35;;;;;;;7.72;1.77;;;7.90;99.90;;;8.65;100.00;99260.66;5043343;28;20046;-79
2023/12/10 09:58:01;;;;;;;9.60;2.67;;;8.00;99.90;;;8.58;100.00;99271.63;5029662;28;20044;-79
2023/12/10 10:00:27;;;;;;;10.52;2.28;;;7.90;99.90;;;8.52;100.00;99274.50;5025460;28;20120;-80
2023/12/10 10:03:01;;;;;;;9.05;1.67;;;7.90;99.90;;;8.56;100.00;99311.00;5029937;28;20334;-80
2023/12/10 10:05:27;;;;;;;9.60;1.67;;;7.90;99.90;;;8.47;100.00;99292.28;5028592;28;20120;-79
2023/12/10 10:07:53;;;;;;;11.57;1.90;;;7.90;99.90;;;8.48;100.00;99296.66;5038571;28;20375;-79
2023/12/10 10:10:22;;;;;;;8.17;1.70;;;7.90;99.90;;;8.46;100.00;99287.91;5020638;28;20061;-78
2023/12/10 10:12:48;;;;;;;8.65;1.70;;;7.80;99.90;;;8.46;100.00;99298.78;5020946;28;20113;-79
2023/12/10 10:15:14;;;;;;;6.38;1.75;;;7.80;99.90;;;8.38;100.00;99291.00;5018763;28;20042;-79